This is the latest recevied weather packets stored in our database for station/object FRA001-13. If no packets are shown the sender has not sent any weather packets the latest 1 day(s).
| Time | Temp. | Humidity | Pressure | Rain* | Wind** | Luminosity | Snow |
|---|---|---|---|---|---|---|---|
| 1778172304 | 20° C | 55% | 1010.7 hPa | 0 mm | - | 256 W/m² | - |
| 1778172003 | 19.44° C | 57% | 1010.7 hPa | 0 mm | - | 267 W/m² | - |
| 1778171703 | 18.89° C | 57% | 1010.7 hPa | 0 mm | - | 303 W/m² | - |
| 1778171404 | 18.33° C | 59% | 1010.4 hPa | 0 mm | - | 195 W/m² | - |
| 1778171104 | 17.78° C | 61% | 1010.2 hPa | 0 mm | - | 300 W/m² | - |
| 1778170804 | 17.78° C | 59% | 1010.5 hPa | 0 mm | - | 94 W/m² | - |
| 1778170504 | 18.33° C | 59% | 1010.4 hPa | 0 mm | - | 102 W/m² | - |
| 1778170203 | 18.33° C | 60% | 1010.4 hPa | 0 mm | - | 118 W/m² | - |
| 1778169903 | 18.33° C | 59% | 1010.4 hPa | 0 mm | - | 134 W/m² | - |
| 1778169603 | 18.33° C | 60% | 1010.4 hPa | 0 mm | - | 111 W/m² | - |
| 1778169303 | 18.33° C | 57% | 1010.3 hPa | 0 mm | - | 120 W/m² | - |
| 1778169004 | 18.33° C | 60% | 1010.4 hPa | 0 mm | - | 139 W/m² | - |
| 1778168703 | 18.89° C | 58% | 1010.3 hPa | 0 mm | - | 137 W/m² | - |
| 1778168404 | 18.89° C | 59% | 1010.5 hPa | 0 mm | - | 174 W/m² | - |
| 1778168104 | 19.44° C | 58% | 1010.5 hPa | 0 mm | - | 252 W/m² | - |
| 1778167803 | 18.89° C | 58% | 1010.7 hPa | 0 mm | - | 282 W/m² | - |
| 1778167503 | 19.44° C | 54% | 1010.7 hPa | 0 mm | - | 232 W/m² | - |
| 1778167203 | 20.56° C | 53% | 1010.5 hPa | 0 mm | - | 300 W/m² | - |
| 1778166903 | 20° C | 55% | 1010.6 hPa | 0 mm | - | 483 W/m² | - |
| 1778166603 | 20° C | 55% | 1010.9 hPa | 0 mm | - | 513 W/m² | - |
| 1778166303 | 20° C | 55% | 1010.7 hPa | 0 mm | - | 415 W/m² | - |
| 1778166004 | 20° C | 58% | 1010.7 hPa | 0 mm | - | 573 W/m² | - |
| 1778165703 | 20° C | 57% | 1010.6 hPa | 0 mm | - | 326 W/m² | - |
| 1778165404 | 20° C | 56% | 1011.2 hPa | 0 mm | - | 588 W/m² | - |
| 1778165103 | 20° C | 55% | 1010.8 hPa | 0 mm | - | 590 W/m² | - |
* Rain latest hour (hover to see other rain measurements)
** Current wind speed in m/s (hover to see current wind gust speed)